Time;durP1;ratioP1;P1;durP2;ratioP2;P2;SDS_P1;SDS_P2;PMS_P1;PMS_P2;Temp;Humidity;BMP_temperature;BMP_pressure;BME280_temperature;BME280_humidity;BME280_pressure;Samples;Min_cycle;Max_cycle;Signal;HPM_P1;HPM_P2
2024/01/27 00:01:08;;;;;;;5.63;3.20;;;;;;;;;;6140345;23;20018;-77
2024/01/27 00:03:54;;;;;;;3.97;1.98;;;;;;;;;;6161972;23;20018;-77
2024/01/27 00:06:40;;;;;;;6.10;2.38;;;;;;;;;;6142444;23;20021;-78
2024/01/27 00:09:26;;;;;;;6.68;2.65;;;;;;;;;;6142001;23;20331;-77
2024/01/27 00:12:15;;;;;;;5.55;2.92;;;;;;;;;;6164331;23;20018;-77
2024/01/27 00:15:04;;;;;;;3.95;2.38;;;;;;;;;;6139029;23;20332;-77
2024/01/27 00:17:54;;;;;;;6.15;2.33;;;;;;;;;;6122005;23;20454;-78
2024/01/27 00:20:40;;;;;;;7.05;2.53;;;;;;;;;;6142087;23;20018;-78
2024/01/27 00:23:26;;;;;;;7.00;2.60;;;;;;;;;;6141186;23;20018;-77
2024/01/27 00:26:14;;;;;;;4.38;2.05;;;;;;;;;;6142132;23;20434;-77
2024/01/27 00:29:01;;;;;;;5.97;3.00;;;;;;;;;;6141257;23;20017;-77
2024/01/27 00:31:50;;;;;;;4.30;2.53;;;;;;;;;;6121151;23;20351;-77
2024/01/27 00:34:36;;;;;;;4.22;2.55;;;;;;;;;;6161708;23;20018;-77
2024/01/27 00:37:25;;;;;;;6.57;2.90;;;;;;;;;;6142899;23;20025;-77
2024/01/27 00:40:16;;;;;;;7.97;2.60;;;;;;;;;;6164122;23;20037;-77
2024/01/27 00:43:03;;;;;;;7.28;2.83;;;;;;;;;;6163924;23;20021;-77
2024/01/27 00:45:52;;;;;;;6.85;2.85;;;;;;;;;;6142249;23;20021;-78
2024/01/27 00:48:37;;;;;;;6.18;2.50;;;;;;;;;;6142296;23;20041;-78
2024/01/27 00:51:26;;;;;;;3.78;1.98;;;;;;;;;;6142094;23;20017;-78
2024/01/27 00:54:14;;;;;;;7.35;2.60;;;;;;;;;;6140803;23;20018;-78
2024/01/27 00:57:03;;;;;;;5.72;2.65;;;;;;;;;;6156308;23;20022;-77
2024/01/27 00:59:49;;;;;;;6.82;2.80;;;;;;;;;;6120549;23;20026;-78
2024/01/27 01:02:37;;;;;;;4.20;2.15;;;;;;;;;;6163569;23;20022;-78
2024/01/27 01:05:22;;;;;;;6.90;2.72;;;;;;;;;;6120727;23;20484;-77
2024/01/27 01:08:11;;;;;;;4.13;2.17;;;;;;;;;;6141964;23;20021;-77
2024/01/27 01:11:00;;;;;;;5.15;2.80;;;;;;;;;;6164088;23;20017;-77
2024/01/27 01:13:48;;;;;;;5.40;2.55;;;;;;;;;;6130071;23;20025;-77
2024/01/27 01:16:34;;;;;;;7.35;3.10;;;;;;;;;;6157767;23;20022;-77
2024/01/27 01:19:24;;;;;;;9.05;2.90;;;;;;;;;;6163729;23;20021;-77
2024/01/27 01:22:12;;;;;;;7.80;2.90;;;;;;;;;;6142177;23;20018;-77
2024/01/27 01:24:58;;;;;;;6.57;2.65;;;;;;;;;;6162189;23;20025;-77
2024/01/27 01:27:49;;;;;;;3.95;2.42;;;;;;;;;;6153521;23;20018;-78
2024/01/27 01:30:34;;;;;;;10.80;2.38;;;;;;;;;;6161949;23;20017;-77
2024/01/27 01:33:20;;;;;;;4.35;2.67;;;;;;;;;;6162582;23;20473;-77
2024/01/27 01:36:08;;;;;;;6.88;2.65;;;;;;;;;;6159279;23;20017;-77
2024/01/27 01:38:56;;;;;;;7.63;2.85;;;;;;;;;;6142420;23;20017;-78
2024/01/27 01:41:42;;;;;;;5.53;2.60;;;;;;;;;;6161776;23;20017;-77
2024/01/27 01:44:31;;;;;;;7.03;3.22;;;;;;;;;;6161653;23;20022;-77
2024/01/27 01:47:17;;;;;;;16.00;2.75;;;;;;;;;;6140953;23;20025;-77
2024/01/27 01:50:04;;;;;;;7.00;2.50;;;;;;;;;;6163861;23;20028;-77
2024/01/27 01:52:54;;;;;;;4.88;2.58;;;;;;;;;;6162394;23;20030;-78
2024/01/27 01:55:40;;;;;;;4.57;1.95;;;;;;;;;;6161148;23;20017;-77
2024/01/27 01:58:26;;;;;;;7.93;2.53;;;;;;;;;;6141118;23;20328;-77
2024/01/27 02:01:15;;;;;;;7.88;2.50;;;;;;;;;;6141349;23;20331;-77
2024/01/27 02:04:05;;;;;;;5.40;3.20;;;;;;;;;;6141346;23;20029;-77
2024/01/27 02:06:51;;;;;;;5.53;2.15;;;;;;;;;;6155279;23;20017;-77
2024/01/27 02:09:38;;;;;;;6.00;2.70;;;;;;;;;;6139735;23;20022;-77
2024/01/27 02:12:24;;;;;;;3.75;1.83;;;;;;;;;;6163235;23;20013;-77
2024/01/27 02:15:13;;;;;;;8.63;2.75;;;;;;;;;;6149796;23;20025;-77
2024/01/27 02:18:02;;;;;;;4.30;1.95;;;;;;;;;;6192729;23;20021;-77
2024/01/27 02:20:50;;;;;;;4.38;2.60;;;;;;;;;;6167562;23;20013;-77
2024/01/27 02:23:36;;;;;;;3.95;2.17;;;;;;;;;;6170460;23;20076;-77
2024/01/27 02:26:23;;;;;;;4.35;2.28;;;;;;;;;;6187689;23;20020;-77
2024/01/27 02:29:11;;;;;;;4.53;2.47;;;;;;;;;;6169170;23;20469;-77
2024/01/27 02:31:59;;;;;;;6.07;2.78;;;;;;;;;;6192360;23;20020;-77
2024/01/27 02:34:45;;;;;;;4.60;2.25;;;;;;;;;;6170305;23;20029;-77
2024/01/27 02:37:34;;;;;;;3.47;2.33;;;;;;;;;;6184604;23;20021;-77
2024/01/27 02:40:22;;;;;;;5.13;2.65;;;;;;;;;;6150032;23;20017;-77
2024/01/27 02:43:12;;;;;;;3.10;2.00;;;;;;;;;;6170632;23;20021;-77
2024/01/27 02:46:00;;;;;;;5.80;1.83;;;;;;;;;;6149204;23;20021;-77
2024/01/27 02:48:46;;;;;;;6.35;2.65;;;;;;;;;;6150017;23;20025;-77
2024/01/27 02:51:37;;;;;;;5.38;2.47;;;;;;;;;;6170582;23;20017;-77
2024/01/27 02:54:23;;;;;;;3.60;1.83;;;;;;;;;;6147574;23;20021;-77
2024/01/27 02:57:08;;;;;;;2.85;2.00;;;;;;;;;;6169948;23;20021;-77
2024/01/27 02:59:55;;;;;;;4.25;2.58;;;;;;;;;;6149926;23;20021;-77
2024/01/27 03:02:44;;;;;;;7.40;1.90;;;;;;;;;;6169820;23;20013;-77
2024/01/27 03:05:32;;;;;;;4.00;1.90;;;;;;;;;;6148907;23;20017;-77
2024/01/27 03:08:21;;;;;;;18.88;1.60;;;;;;;;;;6192638;23;20025;-77
2024/01/27 03:11:09;;;;;;;2.13;1.25;;;;;;;;;;6169655;23;20069;-77
2024/01/27 03:13:55;;;;;;;2.97;1.60;;;;;;;;;;6144503;23;20340;-81
2024/01/27 03:16:44;;;;;;;4.55;2.25;;;;;;;;;;6127062;23;20018;-82
2024/01/27 03:19:30;;;;;;;4.05;1.90;;;;;;;;;;6148635;23;20014;-81
2024/01/27 03:22:16;;;;;;;2.50;1.85;;;;;;;;;;6127812;23;20026;-81
2024/01/27 03:25:02;;;;;;;3.60;1.63;;;;;;;;;;6104724;23;20022;-81
2024/01/27 03:27:48;;;;;;;11.88;2.70;;;;;;;;;;6105520;23;20017;-81
2024/01/27 03:30:37;;;;;;;4.00;2.33;;;;;;;;;;6126275;23;20032;-81
2024/01/27 03:33:29;;;;;;;5.25;1.70;;;;;;;;;;6147478;23;20506;-81
2024/01/27 03:36:14;;;;;;;6.25;2.60;;;;;;;;;;6124741;23;20018;-81
2024/01/27 03:39:02;;;;;;;8.20;2.10;;;;;;;;;;6124530;23;20336;-81
2024/01/27 03:41:51;;;;;;;6.35;2.47;;;;;;;;;;6144464;23;20447;-80
2024/01/27 03:44:37;;;;;;;4.03;1.73;;;;;;;;;;6144431;23;20022;-80
2024/01/27 03:47:23;;;;;;;3.83;2.20;;;;;;;;;;6143738;23;20021;-80
2024/01/27 03:50:11;;;;;;;4.03;2.40;;;;;;;;;;6144772;23;20332;-80
2024/01/27 03:52:56;;;;;;;5.15;2.33;;;;;;;;;;6143525;23;20018;-81
2024/01/27 03:55:43;;;;;;;4.57;2.15;;;;;;;;;;6122594;23;20362;-80
2024/01/27 03:58:29;;;;;;;3.42;1.83;;;;;;;;;;6145195;23;20022;-80
2024/01/27 04:01:16;;;;;;;5.72;1.85;;;;;;;;;;6143167;23;20017;-79
2024/01/27 04:04:04;;;;;;;8.20;3.22;;;;;;;;;;6143537;23;20018;-81
2024/01/27 04:06:52;;;;;;;10.18;2.47;;;;;;;;;;6139277;23;20022;-79
2024/01/27 04:09:40;;;;;;;7.97;2.83;;;;;;;;;;6144235;23;20025;-80
2024/01/27 04:12:26;;;;;;;9.07;2.80;;;;;;;;;;6146489;23;20026;-82
2024/01/27 04:15:12;;;;;;;4.90;2.15;;;;;;;;;;6174450;23;20021;-80
2024/01/27 04:17:58;;;;;;;8.88;2.35;;;;;;;;;;6174149;23;20017;-80
2024/01/27 04:20:45;;;;;;;9.65;2.33;;;;;;;;;;6152213;23;20017;-80
2024/01/27 04:23:33;;;;;;;9.10;2.70;;;;;;;;;;6174061;23;20021;-80
2024/01/27 04:26:19;;;;;;;6.05;2.47;;;;;;;;;;6148770;23;20018;-79
2024/01/27 04:29:04;;;;;;;4.45;2.50;;;;;;;;;;6175393;23;20018;-80
2024/01/27 04:31:50;;;;;;;7.40;1.55;;;;;;;;;;6152546;23;20014;-80
2024/01/27 04:34:41;;;;;;;2.30;1.65;;;;;;;;;;6174463;23;20022;-80
2024/01/27 04:37:27;;;;;;;3.75;1.88;;;;;;;;;;6131967;23;20022;-80
2024/01/27 04:40:20;;;;;;;3.80;1.85;;;;;;;;;;6153249;23;20470;-82
2024/01/27 04:43:06;;;;;;;3.38;1.83;;;;;;;;;;6152365;23;20017;-80
2024/01/27 04:45:57;;;;;;;6.32;2.05;;;;;;;;;;6151244;23;20017;-80
2024/01/27 04:48:43;;;;;;;4.05;2.05;;;;;;;;;;6152630;23;20021;-80
2024/01/27 04:51:29;;;;;;;3.47;1.88;;;;;;;;;;6132016;23;20017;-80
2024/01/27 04:54:18;;;;;;;2.70;1.60;;;;;;;;;;6152373;23;20025;-81
2024/01/27 04:57:08;;;;;;;5.68;2.40;;;;;;;;;;6152556;23;20152;-82
2024/01/27 04:59:58;;;;;;;5.80;1.60;;;;;;;;;;6175120;23;20026;-80
2024/01/27 05:02:47;;;;;;;2.67;1.60;;;;;;;;;;6173935;23;20013;-81
2024/01/27 05:05:33;;;;;;;3.55;1.95;;;;;;;;;;6152312;23;20021;-81
2024/01/27 05:08:19;;;;;;;2.80;1.60;;;;;;;;;;6175215;23;20018;-82
2024/01/27 05:11:05;;;;;;;3.95;1.60;;;;;;;;;;6131944;23;20021;-80
2024/01/27 05:13:52;;;;;;;4.72;2.03;;;;;;;;;;6168729;23;20018;-82
2024/01/27 05:16:41;;;;;;;4.93;1.70;;;;;;;;;;6147630;23;20025;-80
2024/01/27 05:19:27;;;;;;;3.38;1.77;;;;;;;;;;6153226;23;20021;-80
2024/01/27 05:22:12;;;;;;;3.45;2.28;;;;;;;;;;6152659;23;20018;-80
2024/01/27 05:24:58;;;;;;;4.80;1.80;;;;;;;;;;6131754;23;20021;-80
2024/01/27 05:27:47;;;;;;;3.50;1.80;;;;;;;;;;6143553;23;20017;-80
2024/01/27 05:30:36;;;;;;;2.85;1.85;;;;;;;;;;6174729;23;20017;-80
2024/01/27 05:33:25;;;;;;;2.35;1.45;;;;;;;;;;6173661;23;20017;-80
2024/01/27 05:36:13;;;;;;;5.10;1.83;;;;;;;;;;6132313;23;20022;-81
2024/01/27 05:39:03;;;;;;;4.63;2.33;;;;;;;;;;6153228;23;20018;-80
2024/01/27 05:41:50;;;;;;;4.30;2.45;;;;;;;;;;6152321;23;20017;-80
2024/01/27 05:44:35;;;;;;;2.80;1.50;;;;;;;;;;6174652;23;20018;-80
2024/01/27 05:47:25;;;;;;;3.58;1.95;;;;;;;;;;6166931;23;20021;-80
2024/01/27 05:50:17;;;;;;;5.93;1.88;;;;;;;;;;6152598;23;20018;-80
2024/01/27 05:53:05;;;;;;;2.75;1.70;;;;;;;;;;6131262;23;20017;-80
2024/01/27 05:55:51;;;;;;;2.30;1.42;;;;;;;;;;6150778;23;20018;-80
2024/01/27 05:58:39;;;;;;;8.65;1.77;;;;;;;;;;6152942;23;20022;-80
2024/01/27 06:01:25;;;;;;;10.00;1.77;;;;;;;;;;6151731;23;20022;-80
2024/01/27 06:04:13;;;;;;;5.47;1.80;;;;;;;;;;6131727;23;20031;-80
2024/01/27 06:07:01;;;;;;;13.80;1.98;;;;;;;;;;6152230;23;20021;-80
2024/01/27 06:09:47;;;;;;;7.45;1.80;;;;;;;;;;6152261;23;20028;-80
2024/01/27 06:12:35;;;;;;;5.75;1.40;;;;;;;;;;6173134;23;20021;-81
2024/01/27 06:15:21;;;;;;;22.20;2.80;;;;;;;;;;6152695;23;20021;-81
2024/01/27 06:18:07;;;;;;;6.40;2.70;;;;;;;;;;6152440;23;20028;-80
2024/01/27 06:20:54;;;;;;;5.55;2.08;;;;;;;;;;6176668;23;20018;-80
2024/01/27 06:23:43;;;;;;;8.07;1.70;;;;;;;;;;6135922;23;20014;-80
2024/01/27 06:26:32;;;;;;;7.68;1.98;;;;;;;;;;6152974;23;20022;-81
2024/01/27 06:29:18;;;;;;;9.88;1.98;;;;;;;;;;6156243;23;20022;-81
2024/01/27 06:32:05;;;;;;;5.22;1.90;;;;;;;;;;6154516;23;20021;-80
2024/01/27 06:34:51;;;;;;;9.25;1.88;;;;;;;;;;6152919;23;20014;-81
2024/01/27 06:37:38;;;;;;;6.20;1.77;;;;;;;;;;6132179;23;20021;-80
2024/01/27 06:40:24;;;;;;;9.30;1.50;;;;;;;;;;6174198;23;20018;-80
2024/01/27 06:43:11;;;;;;;8.55;1.83;;;;;;;;;;6151492;23;20017;-80
2024/01/27 06:45:58;;;;;;;9.60;2.00;;;;;;;;;;6172061;23;20021;-80
2024/01/27 06:48:44;;;;;;;2.90;1.38;;;;;;;;;;6151318;23;20331;-81
2024/01/27 06:51:33;;;;;;;7.15;1.77;;;;;;;;;;6173151;23;20078;-81
2024/01/27 06:54:22;;;;;;;5.88;2.22;;;;;;;;;;6130456;23;20021;-80
2024/01/27 06:57:18;;;;;;;3.95;1.55;;;;;;;;;;6145620;23;20339;-80
2024/01/27 07:00:13;;;;;;;4.10;1.85;;;;;;;;;;6130951;23;20533;-79
2024/01/27 07:02:59;;;;;;;5.85;1.75;;;;;;;;;;6129705;23;20026;-80
2024/01/27 07:05:46;;;;;;;9.90;2.15;;;;;;;;;;6129966;23;20323;-80
2024/01/27 07:08:40;;;;;;;4.13;2.03;;;;;;;;;;6130118;23;20028;-79
2024/01/27 07:11:28;;;;;;;6.10;1.88;;;;;;;;;;6152965;23;20331;-80
2024/01/27 07:14:14;;;;;;;9.20;3.60;;;;;;;;;;6165787;23;20018;-80
2024/01/27 07:17:04;;;;;;;2.88;1.58;;;;;;;;;;6131723;23;20018;-80
2024/01/27 07:19:52;;;;;;;3.25;1.77;;;;;;;;;;6151519;23;20018;-80
2024/01/27 07:22:41;;;;;;;4.97;1.83;;;;;;;;;;6151804;23;20323;-80
2024/01/27 07:25:28;;;;;;;5.13;2.10;;;;;;;;;;6150898;23;20017;-80
2024/01/27 07:28:16;;;;;;;10.93;3.25;;;;;;;;;;6172944;23;20434;-80
2024/01/27 07:31:04;;;;;;;;;;;;;;;;;;6131044;23;20028;-80
2024/01/27 07:33:50;;;;;;;3.42;1.70;;;;;;;;;;6150268;23;19927;-79
2024/01/27 07:36:36;;;;;;;8.27;2.05;;;;;;;;;;6131324;23;20021;-80
2024/01/27 07:39:23;;;;;;;5.05;1.70;;;;;;;;;;6173513;23;20021;-80
2024/01/27 07:42:09;;;;;;;7.60;2.13;;;;;;;;;;6131943;23;20025;-81
2024/01/27 07:44:59;;;;;;;9.48;2.00;;;;;;;;;;6152289;23;20018;-79
2024/01/27 07:47:48;;;;;;;7.32;2.55;;;;;;;;;;6152731;23;20017;-81
2024/01/27 07:50:37;;;;;;;5.18;2.40;;;;;;;;;;6174956;23;20022;-82
2024/01/27 07:53:25;;;;;;;3.17;1.67;;;;;;;;;;6152673;23;20014;-80
2024/01/27 07:56:14;;;;;;;2.45;1.92;;;;;;;;;;6152840;23;20018;-80
2024/01/27 07:59:00;;;;;;;7.28;2.20;;;;;;;;;;6152306;23;20026;-79
2024/01/27 08:01:48;;;;;;;6.50;1.98;;;;;;;;;;6153558;23;20022;-80
2024/01/27 08:04:38;;;;;;;3.22;1.45;;;;;;;;;;6175202;23;20013;-79
2024/01/27 08:07:27;;;;;;;6.70;2.45;;;;;;;;;;6132497;23;20017;-80
2024/01/27 08:10:15;;;;;;;11.60;2.63;;;;;;;;;;6153832;23;20349;-80
2024/01/27 08:13:02;;;;;;;6.53;2.45;;;;;;;;;;6171002;23;20027;-80
2024/01/27 08:15:47;;;;;;;4.03;2.13;;;;;;;;;;6132158;23;20021;-80
2024/01/27 08:18:35;;;;;;;7.40;2.95;;;;;;;;;;6153266;23;20017;-80
2024/01/27 08:21:21;;;;;;;6.45;3.63;;;;;;;;;;6152411;23;20026;-80
2024/01/27 08:24:07;;;;;;;5.25;3.03;;;;;;;;;;6130901;23;20017;-80
2024/01/27 08:26:53;;;;;;;8.93;3.55;;;;;;;;;;6154205;23;20018;-80
2024/01/27 08:29:41;;;;;;;12.85;3.95;;;;;;;;;;6177065;23;20018;-80
2024/01/27 08:32:27;;;;;;;7.28;3.08;;;;;;;;;;6153791;23;20032;-80
2024/01/27 08:35:14;;;;;;;7.88;3.15;;;;;;;;;;6149277;23;20013;-80
2024/01/27 08:38:03;;;;;;;8.25;3.17;;;;;;;;;;6154454;23;20017;-80
2024/01/27 08:40:52;;;;;;;6.75;2.45;;;;;;;;;;6133957;23;20018;-80
2024/01/27 08:43:38;;;;;;;9.45;3.80;;;;;;;;;;6154284;23;20014;-81
2024/01/27 08:46:24;;;;;;;10.60;3.65;;;;;;;;;;6153010;23;20021;-80
2024/01/27 08:49:12;;;;;;;4.95;2.38;;;;;;;;;;6176585;23;20027;-80
2024/01/27 08:51:59;;;;;;;14.25;4.07;;;;;;;;;;6154113;23;20039;-80
2024/01/27 08:54:48;;;;;;;12.02;3.17;;;;;;;;;;6153994;23;20020;-80
2024/01/27 08:57:34;;;;;;;20.98;3.60;;;;;;;;;;6153253;23;20028;-80
2024/01/27 09:00:20;;;;;;;19.75;4.55;;;;;;;;;;6175637;23;20036;-80
2024/01/27 09:03:06;;;;;;;20.55;3.13;;;;;;;;;;6132526;23;20023;-80
2024/01/27 09:05:55;;;;;;;8.55;2.55;;;;;;;;;;6153728;23;20023;-80
2024/01/27 09:08:42;;;;;;;7.57;2.08;;;;;;;;;;6153172;23;20017;-80
2024/01/27 09:11:30;;;;;;;3.90;2.38;;;;;;;;;;6132809;23;20022;-80
2024/01/27 09:14:18;;;;;;;4.63;2.60;;;;;;;;;;6157507;23;20388;-77
2024/01/27 09:17:04;;;;;;;4.05;2.35;;;;;;;;;;6171292;23;20017;-78
2024/01/27 09:19:50;;;;;;;6.50;2.97;;;;;;;;;;6171425;23;20017;-78
2024/01/27 09:22:36;;;;;;;4.72;2.15;;;;;;;;;;6171426;23;20025;-78
2024/01/27 09:25:27;;;;;;;6.90;3.05;;;;;;;;;;6175964;23;20017;-78
2024/01/27 09:28:18;;;;;;;6.15;2.60;;;;;;;;;;6171489;23;20020;-77
2024/01/27 09:31:04;;;;;;;9.02;2.60;;;;;;;;;;6171756;23;20020;-77
2024/01/27 09:33:51;;;;;;;5.82;2.55;;;;;;;;;;6169471;23;20016;-77
2024/01/27 09:36:39;;;;;;;3.67;1.90;;;;;;;;;;6167055;23;20020;-77
2024/01/27 09:39:30;;;;;;;;;;;;;;;;;;6172579;23;20021;-77
2024/01/27 09:42:22;;;;;;;6.25;2.55;;;;;;;;;;6166295;23;20360;-77
2024/01/27 09:45:10;;;;;;;7.65;2.58;;;;;;;;;;6147945;23;20017;-77
2024/01/27 09:47:58;;;;;;;3.53;2.28;;;;;;;;;;6170218;23;20351;-77
2024/01/27 09:50:46;;;;;;;2.20;1.73;;;;;;;;;;6190946;23;20462;-77
2024/01/27 09:53:35;;;;;;;5.45;2.80;;;;;;;;;;6170096;23;20021;-77
2024/01/27 09:56:23;;;;;;;3.15;2.20;;;;;;;;;;6149287;23;20021;-77
2024/01/27 09:59:14;;;;;;;4.70;2.78;;;;;;;;;;6192530;23;20323;-77
2024/01/27 10:02:00;;;;;;;4.47;2.47;;;;;;;;;;6148285;23;20304;-77
2024/01/27 10:04:49;;;;;;;4.50;2.70;;;;;;;;;;6146781;23;20449;-77
2024/01/27 10:07:37;;;;;;;8.80;2.60;;;;;;;;;;6161292;23;20021;-77
2024/01/27 10:10:23;;;;;;;3.90;2.50;;;;;;;;;;6170199;23;20021;-77
2024/01/27 10:13:11;;;;;;;5.47;2.85;;;;;;;;;;6165135;23;20076;-77
2024/01/27 10:16:02;;;;;;;6.43;3.40;;;;;;;;;;6187499;23;20040;-77
2024/01/27 10:18:49;;;;;;;5.25;2.85;;;;;;;;;;6192576;23;20453;-77
2024/01/27 10:21:34;;;;;;;6.82;3.50;;;;;;;;;;6169926;23;20021;-77
2024/01/27 10:24:20;;;;;;;6.93;3.67;;;;;;;;;;6190256;23;20457;-77
2024/01/27 10:27:05;;;;;;;8.13;4.75;;;;;;;;;;6148820;23;20021;-77
2024/01/27 10:29:55;;;;;;;10.70;4.50;;;;;;;;;;6170699;23;20335;-77
2024/01/27 10:32:57;;;;;;;12.80;5.03;;;;;;;;;;6191349;23;20020;-77
2024/01/27 10:35:44;;;;;;;8.20;4.47;;;;;;;;;;6168637;23;20021;-77
2024/01/27 10:38:36;;;;;;;6.25;3.45;;;;;;;;;;6148369;23;20017;-77
2024/01/27 10:41:24;;;;;;;5.90;3.38;;;;;;;;;;6149596;23;20465;-77
2024/01/27 10:44:11;;;;;;;5.53;2.45;;;;;;;;;;6190818;23;20021;-77
2024/01/27 10:46:57;;;;;;;5.40;3.20;;;;;;;;;;6185911;23;20017;-77
2024/01/27 10:49:48;;;;;;;6.70;3.75;;;;;;;;;;6192307;23;20017;-78
2024/01/27 10:52:41;;;;;;;8.43;3.08;;;;;;;;;;6192393;23;20017;-77
2024/01/27 10:55:27;;;;;;;6.47;3.40;;;;;;;;;;6168479;23;20457;-77
2024/01/27 10:58:16;;;;;;;6.28;3.50;;;;;;;;;;6191201;23;20025;-77
2024/01/27 11:01:04;;;;;;;6.97;3.38;;;;;;;;;;6149082;23;20021;-77
2024/01/27 11:03:49;;;;;;;6.82;4.05;;;;;;;;;;6147754;23;20025;-77
2024/01/27 11:06:40;;;;;;;5.70;3.22;;;;;;;;;;6186193;23;20017;-77
2024/01/27 11:09:26;;;;;;;6.00;4.20;;;;;;;;;;6191585;23;20024;-77
2024/01/27 11:12:18;;;;;;;8.88;4.38;;;;;;;;;;6169723;23;20021;-77
2024/01/27 11:15:05;;;;;;;8.25;4.55;;;;;;;;;;6189545;23;20013;-77
2024/01/27 11:17:58;;;;;;;7.93;4.13;;;;;;;;;;6191774;23;20021;-77
2024/01/27 11:20:47;;;;;;;7.10;3.95;;;;;;;;;;6181388;23;20107;-78
2024/01/27 11:23:35;;;;;;;8.85;4.32;;;;;;;;;;6191859;23;20123;-78
2024/01/27 11:26:23;;;;;;;8.00;4.20;;;;;;;;;;6187367;23;20017;-78
2024/01/27 11:29:19;;;;;;;7.40;4.32;;;;;;;;;;6211407;23;20017;-78
2024/01/27 11:32:08;;;;;;;8.55;4.72;;;;;;;;;;6192194;23;20024;-77
2024/01/27 11:34:54;;;;;;;8.10;4.28;;;;;;;;;;6189113;23;20335;-77
2024/01/27 11:37:40;;;;;;;11.05;4.82;;;;;;;;;;6169586;23;20021;-77
2024/01/27 11:40:27;;;;;;;8.75;4.75;;;;;;;;;;6191692;23;20021;-77
2024/01/27 11:43:14;;;;;;;14.38;5.32;;;;;;;;;;6190185;23;20529;-78
2024/01/27 11:46:01;;;;;;;12.27;5.43;;;;;;;;;;6168440;23;20014;-78
2024/01/27 11:48:47;;;;;;;11.35;4.50;;;;;;;;;;6169742;23;20021;-78
2024/01/27 11:51:38;;;;;;;9.40;4.30;;;;;;;;;;6190313;23;20021;-78
2024/01/27 11:54:24;;;;;;;12.32;5.22;;;;;;;;;;6189777;23;20025;-78
2024/01/27 11:57:11;;;;;;;6.38;3.95;;;;;;;;;;6204340;23;20017;-77
2024/01/27 11:59:57;;;;;;;8.50;4.82;;;;;;;;;;6192018;23;20021;-77
2024/01/27 12:02:51;;;;;;;6.28;4.20;;;;;;;;;;6192337;23;20452;-77
2024/01/27 12:05:37;;;;;;;10.50;4.60;;;;;;;;;;6192443;23;20017;-77
2024/01/27 12:08:25;;;;;;;5.97;3.88;;;;;;;;;;6193636;23;20033;-78
2024/01/27 12:11:14;;;;;;;5.60;3.65;;;;;;;;;;6172315;23;20025;-78
2024/01/27 12:14:04;;;;;;;10.85;4.07;;;;;;;;;;6193355;23;20017;-78
2024/01/27 12:16:53;;;;;;;9.93;3.85;;;;;;;;;;6172455;23;20013;-77
2024/01/27 12:19:47;;;;;;;10.65;4.38;;;;;;;;;;6193699;23;20021;-78
2024/01/27 12:22:37;;;;;;;7.78;4.65;;;;;;;;;;6173315;23;20017;-78
2024/01/27 12:25:23;;;;;;;9.07;3.10;;;;;;;;;;6193845;23;20017;-78
2024/01/27 12:28:12;;;;;;;6.60;2.53;;;;;;;;;;6194381;23;20021;-78
2024/01/27 12:30:59;;;;;;;4.90;2.85;;;;;;;;;;6216602;23;20021;-77
2024/01/27 12:33:55;;;;;;;5.22;2.92;;;;;;;;;;6172832;23;20021;-77
2024/01/27 12:36:43;;;;;;;7.10;2.55;;;;;;;;;;6187866;23;20466;-78
2024/01/27 12:39:29;;;;;;;5.35;1.63;;;;;;;;;;6193413;23;20021;-77
2024/01/27 12:42:15;;;;;;;5.47;1.73;;;;;;;;;;6195145;23;20021;-77
2024/01/27 12:45:03;;;;;;;4.90;2.20;;;;;;;;;;6215668;23;20017;-79
2024/01/27 12:47:53;;;;;;;5.45;1.58;;;;;;;;;;6204630;23;20331;-78
2024/01/27 12:50:39;;;;;;;7.38;2.17;;;;;;;;;;6171010;23;20017;-77
2024/01/27 12:53:30;;;;;;;8.00;2.42;;;;;;;;;;6193016;23;20024;-77
2024/01/27 12:56:17;;;;;;;7.13;1.98;;;;;;;;;;6192205;23;20021;-77
2024/01/27 12:59:05;;;;;;;7.07;1.95;;;;;;;;;;6193203;23;20331;-77
2024/01/27 13:01:51;;;;;;;3.60;1.50;;;;;;;;;;6171803;23;20339;-78
2024/01/27 13:04:40;;;;;;;5.22;1.52;;;;;;;;;;6171584;23;20017;-78
2024/01/27 13:07:29;;;;;;;2.03;1.50;;;;;;;;;;6184585;23;20017;-78
2024/01/27 13:10:14;;;;;;;4.53;1.33;;;;;;;;;;6192299;23;20585;-78
2024/01/27 13:13:04;;;;;;;4.80;1.00;;;;;;;;;;6189394;23;20017;-78
2024/01/27 13:15:50;;;;;;;3.45;1.40;;;;;;;;;;6189882;23;20013;-78
2024/01/27 13:18:37;;;;;;;7.40;1.45;;;;;;;;;;6192818;23;20021;-78
2024/01/27 13:21:26;;;;;;;5.68;1.40;;;;;;;;;;6191519;23;20021;-78
2024/01/27 13:24:12;;;;;;;4.70;1.25;;;;;;;;;;6169363;23;20021;-78
2024/01/27 13:26:58;;;;;;;2.42;1.02;;;;;;;;;;6191001;23;20021;-78
2024/01/27 13:29:46;;;;;;;4.57;1.38;;;;;;;;;;6170514;23;20021;-78
2024/01/27 13:32:32;;;;;;;3.13;1.20;;;;;;;;;;6191471;23;20020;-78
2024/01/27 13:35:18;;;;;;;6.70;1.35;;;;;;;;;;6190766;23;20025;-78
2024/01/27 13:38:08;;;;;;;3.40;0.93;;;;;;;;;;6191839;23;20017;-78
2024/01/27 13:40:54;;;;;;;1.30;0.82;;;;;;;;;;6171141;23;20021;-78
2024/01/27 13:43:39;;;;;;;2.70;0.82;;;;;;;;;;6191314;23;20461;-78
2024/01/27 13:46:28;;;;;;;5.78;0.57;;;;;;;;;;6207917;23;20021;-78
2024/01/27 13:49:14;;;;;;;2.70;0.40;;;;;;;;;;6171369;23;20024;-78
2024/01/27 13:52:00;;;;;;;1.23;0.47;;;;;;;;;;6191878;23;20453;-78
2024/01/27 13:54:48;;;;;;;0.70;0.40;;;;;;;;;;6212668;23;20021;-78
2024/01/27 13:57:36;;;;;;;;;;;;;;;;;;6184193;23;20017;-77
2024/01/27 14:00:22;;;;;;;4.13;0.50;;;;;;;;;;6171323;23;19932;-78
2024/01/27 14:03:10;;;;;;;1.13;0.70;;;;;;;;;;6191359;23;20453;-78
2024/01/27 14:05:56;;;;;;;3.38;0.57;;;;;;;;;;6210543;23;20017;-78
2024/01/27 14:08:44;;;;;;;5.45;0.73;;;;;;;;;;6212231;23;20028;-77
2024/01/27 14:11:34;;;;;;;4.10;0.93;;;;;;;;;;6193231;23;20021;-77
2024/01/27 14:14:20;;;;;;;2.17;0.55;;;;;;;;;;6190771;23;20338;-77
2024/01/27 14:17:06;;;;;;;2.30;0.95;;;;;;;;;;6191777;23;20016;-77
2024/01/27 14:19:52;;;;;;;3.53;0.95;;;;;;;;;;6170118;23;20040;-77
2024/01/27 14:22:38;;;;;;;1.50;0.80;;;;;;;;;;6170076;23;20025;-78
2024/01/27 14:25:24;;;;;;;9.02;2.00;;;;;;;;;;6190135;23;20021;-78
2024/01/27 14:28:11;;;;;;;5.95;1.95;;;;;;;;;;6191053;23;20013;-78
2024/01/27 14:30:59;;;;;;;2.28;1.30;;;;;;;;;;6191592;23;20021;-78
2024/01/27 14:33:45;;;;;;;3.30;1.60;;;;;;;;;;6191852;23;20330;-78
2024/01/27 14:36:31;;;;;;;10.68;2.00;;;;;;;;;;6190507;23;20021;-78
2024/01/27 14:39:17;;;;;;;1.60;0.90;;;;;;;;;;6192294;23;20473;-78
2024/01/27 14:42:07;;;;;;;5.63;1.33;;;;;;;;;;6191445;23;20017;-78
2024/01/27 14:44:56;;;;;;;3.05;1.20;;;;;;;;;;6190779;23;20017;-78
2024/01/27 14:47:42;;;;;;;3.45;1.27;;;;;;;;;;6191451;23;20445;-78
2024/01/27 14:50:27;;;;;;;3.85;0.90;;;;;;;;;;6192884;23;20021;-78
2024/01/27 14:53:14;;;;;;;4.72;1.27;;;;;;;;;;6169279;23;20020;-77
2024/01/27 14:55:59;;;;;;;4.63;1.30;;;;;;;;;;6189024;23;20025;-77
2024/01/27 14:58:51;;;;;;;2.45;1.15;;;;;;;;;;6191477;23;20017;-77
2024/01/27 15:01:38;;;;;;;6.30;0.90;;;;;;;;;;6191704;23;20017;-77
2024/01/27 15:04:26;;;;;;;5.05;1.70;;;;;;;;;;6190514;23;20025;-78
2024/01/27 15:07:15;;;;;;;4.25;1.10;;;;;;;;;;6190834;23;20358;-78
2024/01/27 15:10:01;;;;;;;2.45;1.13;;;;;;;;;;6192250;23;20024;-77
2024/01/27 15:12:47;;;;;;;3.60;1.25;;;;;;;;;;6190262;23;20021;-77
2024/01/27 15:15:35;;;;;;;4.43;1.20;;;;;;;;;;6188937;23;20496;-77
2024/01/27 15:18:23;;;;;;;3.90;1.10;;;;;;;;;;6191648;23;20052;-78
2024/01/27 15:21:11;;;;;;;4.22;0.90;;;;;;;;;;6190919;23;20025;-78
2024/01/27 15:23:57;;;;;;;2.83;0.82;;;;;;;;;;6190339;23;20025;-78
2024/01/27 15:26:43;;;;;;;2.83;1.60;;;;;;;;;;6168848;23;20013;-78
2024/01/27 15:29:32;;;;;;;5.82;1.30;;;;;;;;;;6190536;23;20715;-78
2024/01/27 15:32:21;;;;;;;3.97;1.33;;;;;;;;;;6190927;23;20020;-77
2024/01/27 15:35:10;;;;;;;2.08;0.60;;;;;;;;;;6191569;23;20025;-78
2024/01/27 15:37:57;;;;;;;0.90;0.60;;;;;;;;;;6171580;23;20013;-78
2024/01/27 15:40:42;;;;;;;5.00;1.40;;;;;;;;;;6191774;23;20021;-78
2024/01/27 15:43:31;;;;;;;2.53;1.00;;;;;;;;;;6191434;23;20024;-78
2024/01/27 15:46:21;;;;;;;3.85;0.88;;;;;;;;;;6171100;23;20021;-78
2024/01/27 15:49:10;;;;;;;2.70;1.00;;;;;;;;;;6212769;23;20025;-77
2024/01/27 15:51:57;;;;;;;5.57;0.70;;;;;;;;;;6192602;23;20021;-78
2024/01/27 15:54:47;;;;;;;2.78;0.90;;;;;;;;;;6192510;23;20330;-78
2024/01/27 15:57:34;;;;;;;1.90;0.80;;;;;;;;;;6183717;23;20017;-77
2024/01/27 16:00:20;;;;;;;1.95;0.60;;;;;;;;;;6193267;23;20017;-77
2024/01/27 16:03:06;;;;;;;4.93;1.00;;;;;;;;;;6192303;23;20025;-77
2024/01/27 16:05:54;;;;;;;2.17;0.93;;;;;;;;;;6170539;23;20025;-78
2024/01/27 16:08:44;;;;;;;5.85;1.05;;;;;;;;;;6211442;23;20017;-78
2024/01/27 16:11:30;;;;;;;2.63;0.77;;;;;;;;;;6192289;23;20021;-78
2024/01/27 16:14:16;;;;;;;6.55;1.42;;;;;;;;;;6170027;23;20024;-78
2024/01/27 16:17:02;;;;;;;1.67;0.82;;;;;;;;;;6171125;23;20020;-78
2024/01/27 16:19:53;;;;;;;3.50;0.77;;;;;;;;;;6192226;23;20025;-77
2024/01/27 16:22:39;;;;;;;3.67;1.15;;;;;;;;;;6191755;23;20025;-78
2024/01/27 16:25:31;;;;;;;1.17;0.60;;;;;;;;;;6207371;23;20025;-78
2024/01/27 16:28:19;;;;;;;2.13;0.95;;;;;;;;;;6191324;23;20025;-78
2024/01/27 16:31:08;;;;;;;2.25;0.77;;;;;;;;;;6171697;23;20021;-78
2024/01/27 16:33:53;;;;;;;3.85;1.02;;;;;;;;;;6191886;23;20458;-78
2024/01/27 16:36:42;;;;;;;2.08;1.10;;;;;;;;;;6194050;23;20017;-78
2024/01/27 16:39:33;;;;;;;2.60;1.20;;;;;;;;;;6193362;23;20021;-78
2024/01/27 16:42:24;;;;;;;2.70;1.10;;;;;;;;;;6193534;23;20334;-78
2024/01/27 16:45:10;;;;;;;2.88;1.30;;;;;;;;;;6187787;23;20544;-78